sensor_id;sensor_type;location;lat;lon;timestamp;pressure;altitude;pressure_sealevel;temperature;humidity
63006;BME280;53704;52.532;6.426;2023-02-13T00:02:25;103823.72;;;6.50;100.00
63006;BME280;53704;52.532;6.426;2023-02-13T00:04:50;103827.72;;;6.61;100.00
63006;BME280;53704;52.532;6.426;2023-02-13T00:07:16;103811.31;;;6.48;100.00
63006;BME280;53704;52.532;6.426;2023-02-13T00:09:41;103820.09;;;6.51;100.00
63006;BME280;53704;52.532;6.426;2023-02-13T00:12:08;103820.34;;;6.67;100.00
63006;BME280;53704;52.532;6.426;2023-02-13T00:14:34;103813.44;;;6.18;100.00
63006;BME280;53704;52.532;6.426;2023-02-13T00:17:00;103813.25;;;6.00;100.00
63006;BME280;53704;52.532;6.426;2023-02-13T00:19:26;103813.75;;;6.10;100.00
63006;BME280;53704;52.532;6.426;2023-02-13T00:21:51;103811.38;;;6.46;100.00
63006;BME280;53704;52.532;6.426;2023-02-13T00:24:17;103801.47;;;6.70;100.00
63006;BME280;53704;52.532;6.426;2023-02-13T00:26:42;103800.97;;;6.81;100.00
63006;BME280;53704;52.532;6.426;2023-02-13T00:29:07;103800.69;;;6.67;100.00
63006;BME280;53704;52.532;6.426;2023-02-13T00:31:33;103793.56;;;6.67;100.00
63006;BME280;53704;52.532;6.426;2023-02-13T00:33:58;103790.94;;;6.66;100.00
63006;BME280;53704;52.532;6.426;2023-02-13T00:36:24;103791.47;;;6.31;100.00
63006;BME280;53704;52.532;6.426;2023-02-13T00:38:50;103795.66;;;5.93;100.00
63006;BME280;53704;52.532;6.426;2023-02-13T00:41:16;103793.84;;;6.39;100.00
63006;BME280;53704;52.532;6.426;2023-02-13T00:43:42;103794.16;;;6.74;100.00
63006;BME280;53704;52.532;6.426;2023-02-13T00:46:08;103789.53;;;6.78;100.00
63006;BME280;53704;52.532;6.426;2023-02-13T00:48:34;103791.88;;;6.85;100.00
63006;BME280;53704;52.532;6.426;2023-02-13T00:51:01;103790.69;;;6.72;100.00
63006;BME280;53704;52.532;6.426;2023-02-13T00:53:26;103794.09;;;6.33;100.00
63006;BME280;53704;52.532;6.426;2023-02-13T00:55:52;103792.66;;;6.02;100.00
63006;BME280;53704;52.532;6.426;2023-02-13T00:58:18;103799.69;;;6.27;100.00
63006;BME280;53704;52.532;6.426;2023-02-13T01:00:44;103801.78;;;6.63;100.00
63006;BME280;53704;52.532;6.426;2023-02-13T01:03:14;103795.88;;;6.32;100.00
63006;BME280;53704;52.532;6.426;2023-02-13T01:05:40;103806.13;;;5.75;100.00
63006;BME280;53704;52.532;6.426;2023-02-13T01:08:06;103805.03;;;6.05;100.00
63006;BME280;53704;52.532;6.426;2023-02-13T01:10:31;103784.50;;;6.49;100.00
63006;BME280;53704;52.532;6.426;2023-02-13T01:12:57;103797.22;;;6.65;100.00
63006;BME280;53704;52.532;6.426;2023-02-13T01:15:22;103798.56;;;6.75;100.00
63006;BME280;53704;52.532;6.426;2023-02-13T01:17:47;103794.81;;;6.79;100.00
63006;BME280;53704;52.532;6.426;2023-02-13T01:20:13;103797.63;;;6.56;100.00
63006;BME280;53704;52.532;6.426;2023-02-13T01:22:39;103793.97;;;6.14;100.00
63006;BME280;53704;52.532;6.426;2023-02-13T01:25:05;103804.06;;;6.07;100.00
63006;BME280;53704;52.532;6.426;2023-02-13T01:27:31;103803.22;;;6.05;100.00
63006;BME280;53704;52.532;6.426;2023-02-13T01:29:58;103795.50;;;5.74;100.00
63006;BME280;53704;52.532;6.426;2023-02-13T01:32:23;103789.22;;;5.75;100.00
63006;BME280;53704;52.532;6.426;2023-02-13T01:34:49;103798.06;;;6.01;100.00
63006;BME280;53704;52.532;6.426;2023-02-13T01:37:16;103796.09;;;6.06;100.00
63006;BME280;53704;52.532;6.426;2023-02-13T01:39:41;103799.31;;;6.36;100.00
63006;BME280;53704;52.532;6.426;2023-02-13T01:42:21;103802.59;;;5.98;100.00
63006;BME280;53704;52.532;6.426;2023-02-13T01:44:54;103803.16;;;6.07;100.00
63006;BME280;53704;52.532;6.426;2023-02-13T01:47:44;103800.72;;;6.45;100.00
63006;BME280;53704;52.532;6.426;2023-02-13T01:50:19;103792.28;;;6.33;100.00
63006;BME280;53704;52.532;6.426;2023-02-13T01:52:53;103791.06;;;6.63;100.00
63006;BME280;53704;52.532;6.426;2023-02-13T01:55:19;103787.78;;;6.34;100.00
63006;BME280;53704;52.532;6.426;2023-02-13T01:57:51;103784.06;;;6.16;100.00
63006;BME280;53704;52.532;6.426;2023-02-13T02:00:19;103797.09;;;5.79;100.00
63006;BME280;53704;52.532;6.426;2023-02-13T02:02:53;103784.28;;;5.64;100.00
63006;BME280;53704;52.532;6.426;2023-02-13T02:05:21;103785.41;;;5.58;100.00
63006;BME280;53704;52.532;6.426;2023-02-13T02:07:47;103795.25;;;5.80;100.00
63006;BME280;53704;52.532;6.426;2023-02-13T02:10:16;103790.25;;;5.94;100.00
63006;BME280;53704;52.532;6.426;2023-02-13T02:12:48;103788.00;;;6.29;100.00
63006;BME280;53704;52.532;6.426;2023-02-13T02:15:16;103776.16;;;6.35;100.00
63006;BME280;53704;52.532;6.426;2023-02-13T02:17:41;103775.19;;;6.38;100.00
63006;BME280;53704;52.532;6.426;2023-02-13T02:34:40;103771.69;;;6.36;100.00
63006;BME280;53704;52.532;6.426;2023-02-13T02:42:42;103758.16;;;5.94;100.00
63006;BME280;53704;52.532;6.426;2023-02-13T02:48:24;103760.00;;;5.70;100.00
63006;BME280;53704;52.532;6.426;2023-02-13T02:54:12;103755.38;;;6.20;100.00
63006;BME280;53704;52.532;6.426;2023-02-13T02:57:03;103752.50;;;6.46;100.00
63006;BME280;53704;52.532;6.426;2023-02-13T02:59:33;103758.75;;;6.47;100.00
63006;BME280;53704;52.532;6.426;2023-02-13T03:02:20;103753.00;;;6.34;100.00
63006;BME280;53704;52.532;6.426;2023-02-13T03:05:15;103760.56;;;6.02;100.00
63006;BME280;53704;52.532;6.426;2023-02-13T03:08:01;103759.78;;;5.76;100.00
63006;BME280;53704;52.532;6.426;2023-02-13T03:10:30;103758.19;;;5.71;100.00
63006;BME280;53704;52.532;6.426;2023-02-13T03:16:03;103761.06;;;5.66;100.00
63006;BME280;53704;52.532;6.426;2023-02-13T03:18:52;103758.97;;;5.74;100.00
63006;BME280;53704;52.532;6.426;2023-02-13T03:38:32;103761.28;;;5.84;100.00
63006;BME280;53704;52.532;6.426;2023-02-13T03:41:06;103758.78;;;6.25;100.00
63006;BME280;53704;52.532;6.426;2023-02-13T03:46:35;103757.34;;;6.59;100.00
63006;BME280;53704;52.532;6.426;2023-02-13T03:49:04;103760.38;;;6.29;100.00
63006;BME280;53704;52.532;6.426;2023-02-13T03:51:56;103758.59;;;6.07;100.00
63006;BME280;53704;52.532;6.426;2023-02-13T03:54:32;103761.88;;;6.36;100.00
63006;BME280;53704;52.532;6.426;2023-02-13T03:57:19;103762.31;;;6.25;100.00
63006;BME280;53704;52.532;6.426;2023-02-13T04:00:08;103755.47;;;5.72;100.00
63006;BME280;53704;52.532;6.426;2023-02-13T04:02:42;103764.66;;;5.65;100.00
63006;BME280;53704;52.532;6.426;2023-02-13T04:05:16;103764.25;;;6.00;100.00
63006;BME280;53704;52.532;6.426;2023-02-13T04:07:43;103765.53;;;5.66;100.00
63006;BME280;53704;52.532;6.426;2023-02-13T04:10:14;103762.28;;;5.57;100.00
63006;BME280;53704;52.532;6.426;2023-02-13T04:13:02;103760.03;;;5.47;100.00
63006;BME280;53704;52.532;6.426;2023-02-13T04:15:44;103764.09;;;5.57;100.00
63006;BME280;53704;52.532;6.426;2023-02-13T04:18:18;103760.78;;;5.96;100.00
63006;BME280;53704;52.532;6.426;2023-02-13T04:20:45;103765.03;;;6.02;100.00
63006;BME280;53704;52.532;6.426;2023-02-13T04:23:11;103762.09;;;5.86;100.00
63006;BME280;53704;52.532;6.426;2023-02-13T04:25:39;103757.22;;;5.50;100.00
63006;BME280;53704;52.532;6.426;2023-02-13T04:28:06;103759.44;;;5.62;100.00
63006;BME280;53704;52.532;6.426;2023-02-13T04:30:32;103748.31;;;6.19;100.00
63006;BME280;53704;52.532;6.426;2023-02-13T04:32:58;103748.56;;;6.34;100.00
63006;BME280;53704;52.532;6.426;2023-02-13T04:35:23;103752.31;;;6.51;100.00
63006;BME280;53704;52.532;6.426;2023-02-13T04:37:49;103748.63;;;6.54;100.00
63006;BME280;53704;52.532;6.426;2023-02-13T04:40:14;103748.56;;;6.12;100.00
63006;BME280;53704;52.532;6.426;2023-02-13T04:42:40;103747.19;;;6.02;100.00
63006;BME280;53704;52.532;6.426;2023-02-13T04:45:05;103745.00;;;6.12;100.00
63006;BME280;53704;52.532;6.426;2023-02-13T04:47:31;103741.16;;;6.19;100.00
63006;BME280;53704;52.532;6.426;2023-02-13T04:49:56;103740.06;;;5.79;100.00
63006;BME280;53704;52.532;6.426;2023-02-13T04:52:21;103741.63;;;5.85;100.00
63006;BME280;53704;52.532;6.426;2023-02-13T04:54:47;103742.06;;;6.18;100.00
63006;BME280;53704;52.532;6.426;2023-02-13T04:57:12;103738.25;;;5.79;100.00
63006;BME280;53704;52.532;6.426;2023-02-13T04:59:38;103740.66;;;5.64;100.00
63006;BME280;53704;52.532;6.426;2023-02-13T05:02:03;103731.31;;;5.52;100.00
63006;BME280;53704;52.532;6.426;2023-02-13T05:04:29;103733.63;;;5.61;100.00
63006;BME280;53704;52.532;6.426;2023-02-13T05:06:54;103731.78;;;5.63;100.00
63006;BME280;53704;52.532;6.426;2023-02-13T05:09:20;103735.78;;;5.75;100.00
63006;BME280;53704;52.532;6.426;2023-02-13T05:11:45;103734.59;;;6.06;100.00
63006;BME280;53704;52.532;6.426;2023-02-13T05:14:11;103738.72;;;6.35;100.00
63006;BME280;53704;52.532;6.426;2023-02-13T05:16:37;103740.66;;;6.09;100.00
63006;BME280;53704;52.532;6.426;2023-02-13T05:19:02;103735.75;;;5.98;100.00
63006;BME280;53704;52.532;6.426;2023-02-13T05:21:28;103732.00;;;5.80;100.00
63006;BME280;53704;52.532;6.426;2023-02-13T05:24:12;103735.25;;;6.11;100.00
63006;BME280;53704;52.532;6.426;2023-02-13T05:26:37;103732.66;;;6.09;100.00
63006;BME280;53704;52.532;6.426;2023-02-13T05:29:03;103738.00;;;6.09;100.00
63006;BME280;53704;52.532;6.426;2023-02-13T05:31:54;103733.25;;;6.16;100.00
63006;BME280;53704;52.532;6.426;2023-02-13T05:34:21;103727.44;;;5.83;100.00
63006;BME280;53704;52.532;6.426;2023-02-13T05:36:47;103725.06;;;5.75;100.00
63006;BME280;53704;52.532;6.426;2023-02-13T05:39:13;103729.09;;;5.87;100.00
63006;BME280;53704;52.532;6.426;2023-02-13T05:41:40;103735.03;;;5.93;100.00
63006;BME280;53704;52.532;6.426;2023-02-13T05:44:07;103728.22;;;6.08;100.00
63006;BME280;53704;52.532;6.426;2023-02-13T05:46:32;103729.88;;;5.89;100.00
63006;BME280;53704;52.532;6.426;2023-02-13T05:48:58;103724.81;;;6.05;100.00
63006;BME280;53704;52.532;6.426;2023-02-13T05:51:24;103734.56;;;5.84;100.00
63006;BME280;53704;52.532;6.426;2023-02-13T05:53:49;103729.16;;;5.85;100.00
63006;BME280;53704;52.532;6.426;2023-02-13T05:56:15;103730.97;;;5.61;100.00
63006;BME280;53704;52.532;6.426;2023-02-13T05:58:40;103724.03;;;5.79;100.00
63006;BME280;53704;52.532;6.426;2023-02-13T06:01:06;103731.16;;;6.02;100.00
63006;BME280;53704;52.532;6.426;2023-02-13T06:03:32;103728.81;;;6.15;100.00
63006;BME280;53704;52.532;6.426;2023-02-13T06:05:57;103731.50;;;6.15;100.00
63006;BME280;53704;52.532;6.426;2023-02-13T06:08:24;103728.94;;;5.90;100.00
63006;BME280;53704;52.532;6.426;2023-02-13T06:10:49;103723.97;;;5.80;100.00
63006;BME280;53704;52.532;6.426;2023-02-13T06:13:15;103723.28;;;5.52;100.00
63006;BME280;53704;52.532;6.426;2023-02-13T06:15:42;103729.25;;;5.82;100.00
63006;BME280;53704;52.532;6.426;2023-02-13T06:18:08;103731.84;;;6.07;100.00
63006;BME280;53704;52.532;6.426;2023-02-13T06:20:34;103738.13;;;6.06;100.00
63006;BME280;53704;52.532;6.426;2023-02-13T06:23:00;103744.31;;;5.61;100.00
63006;BME280;53704;52.532;6.426;2023-02-13T06:25:26;103746.59;;;5.94;100.00
63006;BME280;53704;52.532;6.426;2023-02-13T06:27:51;103748.41;;;5.71;100.00
63006;BME280;53704;52.532;6.426;2023-02-13T06:30:17;103746.03;;;5.86;100.00
63006;BME280;53704;52.532;6.426;2023-02-13T06:32:44;103750.00;;;5.75;100.00
63006;BME280;53704;52.532;6.426;2023-02-13T06:35:10;103758.75;;;5.57;100.00
63006;BME280;53704;52.532;6.426;2023-02-13T06:37:36;103752.88;;;5.93;100.00
63006;BME280;53704;52.532;6.426;2023-02-13T06:40:04;103761.63;;;6.20;100.00
63006;BME280;53704;52.532;6.426;2023-02-13T06:42:30;103764.19;;;6.01;100.00
63006;BME280;53704;52.532;6.426;2023-02-13T06:44:55;103758.38;;;6.12;100.00
63006;BME280;53704;52.532;6.426;2023-02-13T06:47:21;103768.41;;;5.83;100.00
63006;BME280;53704;52.532;6.426;2023-02-13T06:49:46;103759.88;;;5.97;100.00
63006;BME280;53704;52.532;6.426;2023-02-13T06:52:14;103759.28;;;6.12;100.00
63006;BME280;53704;52.532;6.426;2023-02-13T06:54:40;103761.44;;;6.25;100.00
63006;BME280;53704;52.532;6.426;2023-02-13T06:57:05;103755.28;;;6.01;100.00
63006;BME280;53704;52.532;6.426;2023-02-13T06:59:31;103772.41;;;5.73;100.00
63006;BME280;53704;52.532;6.426;2023-02-13T07:01:56;103772.97;;;5.57;100.00
63006;BME280;53704;52.532;6.426;2023-02-13T07:04:22;103776.91;;;5.71;100.00
63006;BME280;53704;52.532;6.426;2023-02-13T07:06:47;103777.25;;;6.09;100.00
63006;BME280;53704;52.532;6.426;2023-02-13T07:09:13;103785.06;;;6.13;100.00
63006;BME280;53704;52.532;6.426;2023-02-13T07:11:38;103781.47;;;5.91;100.00
63006;BME280;53704;52.532;6.426;2023-02-13T07:14:08;103780.41;;;5.73;100.00
63006;BME280;53704;52.532;6.426;2023-02-13T07:16:34;103775.16;;;5.93;100.00
63006;BME280;53704;52.532;6.426;2023-02-13T07:18:59;103785.84;;;6.17;100.00
63006;BME280;53704;52.532;6.426;2023-02-13T07:21:24;103780.63;;;5.90;100.00
63006;BME280;53704;52.532;6.426;2023-02-13T07:23:51;103783.13;;;5.95;100.00
63006;BME280;53704;52.532;6.426;2023-02-13T07:26:17;103787.72;;;6.13;100.00
63006;BME280;53704;52.532;6.426;2023-02-13T07:28:42;103783.53;;;6.08;100.00
63006;BME280;53704;52.532;6.426;2023-02-13T07:31:08;103780.66;;;6.12;100.00
63006;BME280;53704;52.532;6.426;2023-02-13T07:33:34;103781.22;;;6.21;100.00
63006;BME280;53704;52.532;6.426;2023-02-13T07:36:00;103782.84;;;6.25;100.00
63006;BME280;53704;52.532;6.426;2023-02-13T07:38:28;103783.97;;;6.19;100.00
63006;BME280;53704;52.532;6.426;2023-02-13T07:40:57;103789.31;;;5.95;100.00
63006;BME280;53704;52.532;6.426;2023-02-13T07:43:23;103781.47;;;6.14;100.00
63006;BME280;53704;52.532;6.426;2023-02-13T07:45:49;103780.72;;;6.33;100.00
63006;BME280;53704;52.532;6.426;2023-02-13T07:48:14;103786.81;;;6.37;100.00
63006;BME280;53704;52.532;6.426;2023-02-13T07:50:39;103784.44;;;6.29;100.00
63006;BME280;53704;52.532;6.426;2023-02-13T07:53:05;103781.06;;;6.46;100.00
63006;BME280;53704;52.532;6.426;2023-02-13T07:55:30;103786.72;;;6.60;100.00
63006;BME280;53704;52.532;6.426;2023-02-13T07:57:58;103791.97;;;6.41;100.00
63006;BME280;53704;52.532;6.426;2023-02-13T08:00:24;103789.47;;;6.37;100.00
63006;BME280;53704;52.532;6.426;2023-02-13T08:02:50;103783.53;;;6.30;100.00
63006;BME280;53704;52.532;6.426;2023-02-13T08:05:15;103784.50;;;6.49;100.00
63006;BME280;53704;52.532;6.426;2023-02-13T08:07:41;103782.06;;;6.43;100.00
63006;BME280;53704;52.532;6.426;2023-02-13T08:10:07;103793.56;;;6.67;100.00
63006;BME280;53704;52.532;6.426;2023-02-13T08:12:52;103790.41;;;6.78;100.00
63006;BME280;53704;52.532;6.426;2023-02-13T08:15:18;103790.88;;;6.67;100.00
63006;BME280;53704;52.532;6.426;2023-02-13T08:17:43;103789.72;;;6.73;100.00
63006;BME280;53704;52.532;6.426;2023-02-13T08:20:09;103790.41;;;6.36;100.00
63006;BME280;53704;52.532;6.426;2023-02-13T08:22:36;103791.22;;;6.80;100.00
63006;BME280;53704;52.532;6.426;2023-02-13T08:25:03;103796.22;;;6.47;100.00
63006;BME280;53704;52.532;6.426;2023-02-13T08:27:28;103791.94;;;6.63;100.00
63006;BME280;53704;52.532;6.426;2023-02-13T08:29:55;103787.66;;;6.80;100.00
63006;BME280;53704;52.532;6.426;2023-02-13T08:32:21;103791.56;;;6.93;100.00
63006;BME280;53704;52.532;6.426;2023-02-13T08:34:47;103797.03;;;6.90;100.00
63006;BME280;53704;52.532;6.426;2023-02-13T08:37:13;103795.34;;;6.87;100.00
63006;BME280;53704;52.532;6.426;2023-02-13T08:39:38;103792.28;;;6.76;100.00
63006;BME280;53704;52.532;6.426;2023-02-13T08:42:04;103798.41;;;6.58;100.00
63006;BME280;53704;52.532;6.426;2023-02-13T08:44:29;103796.91;;;6.73;100.00
63006;BME280;53704;52.532;6.426;2023-02-13T08:46:55;103804.34;;;6.86;100.00
63006;BME280;53704;52.532;6.426;2023-02-13T08:49:21;103791.94;;;7.04;100.00
63006;BME280;53704;52.532;6.426;2023-02-13T08:51:48;103800.13;;;6.81;100.00
63006;BME280;53704;52.532;6.426;2023-02-13T08:54:13;103797.72;;;6.95;100.00
63006;BME280;53704;52.532;6.426;2023-02-13T08:56:41;103802.34;;;6.92;100.00
63006;BME280;53704;52.532;6.426;2023-02-13T08:59:06;103802.31;;;6.71;100.00
63006;BME280;53704;52.532;6.426;2023-02-13T09:01:32;103798.28;;;6.81;100.00
63006;BME280;53704;52.532;6.426;2023-02-13T09:03:57;103806.59;;;6.75;100.00
63006;BME280;53704;52.532;6.426;2023-02-13T09:06:23;103813.03;;;6.71;100.00
63006;BME280;53704;52.532;6.426;2023-02-13T09:08:51;103814.22;;;6.64;100.00
63006;BME280;53704;52.532;6.426;2023-02-13T09:11:17;103816.47;;;6.95;100.00
63006;BME280;53704;52.532;6.426;2023-02-13T09:13:44;103816.84;;;7.06;100.00
63006;BME280;53704;52.532;6.426;2023-02-13T09:16:09;103811.03;;;7.17;100.00
63006;BME280;53704;52.532;6.426;2023-02-13T09:18:35;103804.56;;;7.02;100.00
63006;BME280;53704;52.532;6.426;2023-02-13T09:21:03;103820.69;;;7.01;100.00
63006;BME280;53704;52.532;6.426;2023-02-13T09:23:34;103817.94;;;7.02;100.00
63006;BME280;53704;52.532;6.426;2023-02-13T09:26:01;103823.75;;;7.33;100.00
63006;BME280;53704;52.532;6.426;2023-02-13T09:28:29;103821.00;;;7.34;100.00
63006;BME280;53704;52.532;6.426;2023-02-13T09:30:55;103806.38;;;7.60;100.00
63006;BME280;53704;52.532;6.426;2023-02-13T09:33:20;103811.00;;;7.38;100.00
63006;BME280;53704;52.532;6.426;2023-02-13T09:35:46;103810.31;;;7.72;100.00
63006;BME280;53704;52.532;6.426;2023-02-13T09:38:11;103821.06;;;7.33;100.00
63006;BME280;53704;52.532;6.426;2023-02-13T09:40:42;103809.66;;;7.48;100.00
63006;BME280;53704;52.532;6.426;2023-02-13T09:45:42;103800.16;;;7.60;100.00
63006;BME280;53704;52.532;6.426;2023-02-13T09:48:17;103807.28;;;7.61;100.00
63006;BME280;53704;52.532;6.426;2023-02-13T09:50:43;103812.56;;;7.63;100.00
63006;BME280;53704;52.532;6.426;2023-02-13T09:53:18;103808.84;;;7.84;100.00
63006;BME280;53704;52.532;6.426;2023-02-13T09:55:57;103802.34;;;7.71;100.00
63006;BME280;53704;52.532;6.426;2023-02-13T09:58:30;103806.25;;;7.64;100.00
63006;BME280;53704;52.532;6.426;2023-02-13T10:00:59;103803.19;;;7.90;100.00
63006;BME280;53704;52.532;6.426;2023-02-13T10:03:43;103795.09;;;7.92;100.00
63006;BME280;53704;52.532;6.426;2023-02-13T10:11:41;103804.25;;;8.24;100.00
63006;BME280;53704;52.532;6.426;2023-02-13T10:14:19;103799.19;;;8.18;100.00
63006;BME280;53704;52.532;6.426;2023-02-13T10:16:58;103805.97;;;8.25;100.00
63006;BME280;53704;52.532;6.426;2023-02-13T10:19:36;103805.75;;;8.49;100.00
63006;BME280;53704;52.532;6.426;2023-02-13T10:22:16;103799.59;;;8.47;100.00
63006;BME280;53704;52.532;6.426;2023-02-13T10:24:55;103803.06;;;8.49;100.00
63006;BME280;53704;52.532;6.426;2023-02-13T10:27:45;103792.47;;;8.46;100.00
63006;BME280;53704;52.532;6.426;2023-02-13T10:30:33;103804.13;;;8.64;100.00
63006;BME280;53704;52.532;6.426;2023-02-13T10:33:12;103802.28;;;8.64;100.00
63006;BME280;53704;52.532;6.426;2023-02-13T10:35:49;103795.34;;;8.78;100.00
63006;BME280;53704;52.532;6.426;2023-02-13T10:38:18;103784.09;;;8.87;100.00
63006;BME280;53704;52.532;6.426;2023-02-13T10:44:02;103794.63;;;8.92;100.00
63006;BME280;53704;52.532;6.426;2023-02-13T10:49:22;103783.63;;;8.96;100.00
63006;BME280;53704;52.532;6.426;2023-02-13T10:52:09;103793.81;;;9.07;100.00
63006;BME280;53704;52.532;6.426;2023-02-13T10:55:02;103788.03;;;9.15;100.00
63006;BME280;53704;52.532;6.426;2023-02-13T11:02:30;103779.03;;;9.49;100.00
63006;BME280;53704;52.532;6.426;2023-02-13T11:07:35;103782.28;;;9.38;100.00
63006;BME280;53704;52.532;6.426;2023-02-13T11:10:12;103775.63;;;9.46;100.00
63006;BME280;53704;52.532;6.426;2023-02-13T11:12:38;103778.88;;;9.68;100.00
63006;BME280;53704;52.532;6.426;2023-02-13T11:15:06;103776.78;;;9.73;100.00
63006;BME280;53704;52.532;6.426;2023-02-13T11:17:34;103768.97;;;9.69;100.00
63006;BME280;53704;52.532;6.426;2023-02-13T11:20:34;103770.97;;;9.81;100.00
63006;BME280;53704;52.532;6.426;2023-02-13T11:26:15;103759.34;;;9.65;100.00
63006;BME280;53704;52.532;6.426;2023-02-13T11:31:21;103755.84;;;9.63;100.00
63006;BME280;53704;52.532;6.426;2023-02-13T11:33:47;103755.06;;;9.92;100.00
63006;BME280;53704;52.532;6.426;2023-02-13T11:36:22;103749.31;;;10.14;100.00
63006;BME280;53704;52.532;6.426;2023-02-13T11:41:24;103744.50;;;9.73;100.00
63006;BME280;53704;52.532;6.426;2023-02-13T11:44:31;103741.28;;;9.83;100.00
63006;BME280;53704;52.532;6.426;2023-02-13T11:46:59;103741.47;;;9.48;100.00
63006;BME280;53704;52.532;6.426;2023-02-13T11:49:27;103744.06;;;9.97;100.00
63006;BME280;53704;52.532;6.426;2023-02-13T11:51:58;103738.78;;;9.80;100.00
63006;BME280;53704;52.532;6.426;2023-02-13T11:54:30;103732.72;;;10.22;100.00
63006;BME280;53704;52.532;6.426;2023-02-13T11:57:08;103731.44;;;9.98;100.00
63006;BME280;53704;52.532;6.426;2023-02-13T11:59:42;103730.53;;;10.29;100.00
63006;BME280;53704;52.532;6.426;2023-02-13T12:04:43;103724.47;;;9.79;100.00
63006;BME280;53704;52.532;6.426;2023-02-13T12:07:28;103720.59;;;9.99;100.00
63006;BME280;53704;52.532;6.426;2023-02-13T12:10:07;103722.69;;;9.94;100.00
63006;BME280;53704;52.532;6.426;2023-02-13T12:15:35;103718.72;;;10.31;100.00
63006;BME280;53704;52.532;6.426;2023-02-13T12:18:03;103714.72;;;10.23;100.00
63006;BME280;53704;52.532;6.426;2023-02-13T12:25:59;103713.44;;;10.30;100.00
63006;BME280;53704;52.532;6.426;2023-02-13T12:34:45;103698.47;;;10.40;100.00
63006;BME280;53704;52.532;6.426;2023-02-13T12:42:56;103697.09;;;10.78;100.00
63006;BME280;53704;52.532;6.426;2023-02-13T12:45:50;103689.03;;;10.92;100.00
63006;BME280;53704;52.532;6.426;2023-02-13T12:48:34;103687.31;;;10.91;100.00
63006;BME280;53704;52.532;6.426;2023-02-13T12:54:30;103681.78;;;10.78;100.00
63006;BME280;53704;52.532;6.426;2023-02-13T12:57:09;103671.66;;;10.23;100.00
63006;BME280;53704;52.532;6.426;2023-02-13T12:59:57;103669.50;;;10.29;100.00
63006;BME280;53704;52.532;6.426;2023-02-13T13:02:46;103670.34;;;10.30;100.00
63006;BME280;53704;52.532;6.426;2023-02-13T13:05:24;103666.16;;;10.55;100.00
63006;BME280;53704;52.532;6.426;2023-02-13T13:16:45;103670.81;;;10.53;100.00
63006;BME280;53704;52.532;6.426;2023-02-13T13:22:17;103670.72;;;10.83;100.00
63006;BME280;53704;52.532;6.426;2023-02-13T13:25:19;103656.84;;;11.03;100.00
63006;BME280;53704;52.532;6.426;2023-02-13T13:27:52;103661.50;;;11.43;100.00
63006;BME280;53704;52.532;6.426;2023-02-13T13:30:27;103655.25;;;11.01;100.00
63006;BME280;53704;52.532;6.426;2023-02-13T13:33:01;103663.28;;;11.30;100.00
63006;BME280;53704;52.532;6.426;2023-02-13T13:35:28;103661.97;;;11.08;100.00
63006;BME280;53704;52.532;6.426;2023-02-13T13:38:11;103658.13;;;11.12;100.00
63006;BME280;53704;52.532;6.426;2023-02-13T13:44:00;103641.53;;;11.18;100.00
63006;BME280;53704;52.532;6.426;2023-02-13T13:52:20;103639.66;;;11.33;100.00
63006;BME280;53704;52.532;6.426;2023-02-13T13:54:45;103628.88;;;10.77;100.00
63006;BME280;53704;52.532;6.426;2023-02-13T13:57:16;103634.25;;;11.06;100.00
63006;BME280;53704;52.532;6.426;2023-02-13T14:05:02;103635.13;;;11.48;100.00
63006;BME280;53704;52.532;6.426;2023-02-13T14:07:39;103627.81;;;10.94;100.00
63006;BME280;53704;52.532;6.426;2023-02-13T14:18:20;103619.31;;;11.00;100.00
63006;BME280;53704;52.532;6.426;2023-02-13T14:26:08;103610.75;;;10.94;100.00
63006;BME280;53704;52.532;6.426;2023-02-13T14:28:34;103615.41;;;10.77;100.00
63006;BME280;53704;52.532;6.426;2023-02-13T14:31:08;103610.38;;;10.85;100.00
63006;BME280;53704;52.532;6.426;2023-02-13T14:33:41;103614.22;;;10.96;100.00
63006;BME280;53704;52.532;6.426;2023-02-13T14:36:16;103611.53;;;10.81;100.00
63006;BME280;53704;52.532;6.426;2023-02-13T14:38:54;103606.63;;;11.02;100.00
63006;BME280;53704;52.532;6.426;2023-02-13T14:44:45;103609.63;;;10.83;100.00
63006;BME280;53704;52.532;6.426;2023-02-13T14:47:22;103601.31;;;11.01;100.00
63006;BME280;53704;52.532;6.426;2023-02-13T14:49:50;103596.25;;;10.67;100.00
63006;BME280;53704;52.532;6.426;2023-02-13T14:52:19;103597.75;;;10.86;100.00
63006;BME280;53704;52.532;6.426;2023-02-13T14:54:53;103593.72;;;10.36;100.00
63006;BME280;53704;52.532;6.426;2023-02-13T14:57:36;103588.53;;;10.32;100.00
63006;BME280;53704;52.532;6.426;2023-02-13T15:00:20;103580.16;;;10.37;100.00
63006;BME280;53704;52.532;6.426;2023-02-13T15:02:52;103591.50;;;10.28;100.00
63006;BME280;53704;52.532;6.426;2023-02-13T15:05:20;103585.84;;;10.76;100.00
63006;BME280;53704;52.532;6.426;2023-02-13T15:10:44;103584.50;;;10.40;100.00
63006;BME280;53704;52.532;6.426;2023-02-13T15:13:21;103589.19;;;9.91;100.00
63006;BME280;53704;52.532;6.426;2023-02-13T15:15:53;103588.19;;;9.78;100.00
63006;BME280;53704;52.532;6.426;2023-02-13T15:18:26;103592.13;;;10.03;100.00
63006;BME280;53704;52.532;6.426;2023-02-13T15:20:54;103590.06;;;9.92;100.00
63006;BME280;53704;52.532;6.426;2023-02-13T15:23:24;103587.75;;;9.86;100.00
63006;BME280;53704;52.532;6.426;2023-02-13T15:26:20;103585.84;;;10.02;100.00
63006;BME280;53704;52.532;6.426;2023-02-13T15:29:16;103592.97;;;9.43;100.00
63006;BME280;53704;52.532;6.426;2023-02-13T15:31:42;103592.53;;;9.81;100.00
63006;BME280;53704;52.532;6.426;2023-02-13T15:36:51;103589.88;;;9.65;100.00
63006;BME280;53704;52.532;6.426;2023-02-13T15:39:22;103585.00;;;9.71;100.00